createdAt,value
2023-06-22T00:01:18.691Z,14.82
2023-06-22T00:03:50.674Z,15.10
2023-06-22T00:06:22.710Z,15.48
2023-06-22T00:08:54.486Z,14.40
2023-06-22T00:11:26.298Z,14.77
2023-06-22T00:13:58.104Z,13.35
2023-06-22T00:16:30.034Z,14.60
2023-06-22T00:19:03.051Z,14.70
2023-06-22T00:21:34.968Z,13.75
2023-06-22T00:24:07.381Z,13.57
2023-06-22T00:26:39.258Z,12.88
2023-06-22T00:29:14.994Z,11.32
2023-06-22T00:31:46.953Z,11.05
2023-06-22T00:34:18.813Z,10.27
2023-06-22T00:36:52.960Z,9.85
2023-06-22T00:39:24.958Z,10.18
2023-06-22T00:41:57.047Z,9.30
2023-06-22T00:44:28.998Z,8.95
2023-06-22T00:47:01.593Z,9.10
2023-06-22T00:49:33.359Z,8.98
2023-06-22T00:52:05.243Z,8.88
2023-06-22T00:54:37.829Z,8.73
2023-06-22T00:57:11.986Z,9.05
2023-06-22T00:59:46.830Z,9.27
2023-06-22T01:02:18.703Z,8.75
2023-06-22T01:04:50.548Z,8.95
2023-06-22T01:07:25.880Z,9.80
2023-06-22T01:10:06.954Z,10.07
2023-06-22T01:12:45.859Z,9.98
2023-06-22T01:15:33.768Z,10.05
2023-06-22T01:18:06.603Z,9.43
2023-06-22T01:20:38.499Z,9.70
2023-06-22T01:23:29.105Z,9.45
2023-06-22T01:26:15.369Z,9.40
2023-06-22T01:28:48.104Z,8.85
2023-06-22T01:31:23.322Z,7.88
2023-06-22T01:34:03.500Z,8.30
2023-06-22T01:36:35.421Z,7.80
2023-06-22T01:39:07.264Z,8.27
2023-06-22T01:41:39.426Z,7.95
2023-06-22T01:44:11.248Z,8.77
2023-06-22T01:46:43.143Z,8.10
2023-06-22T01:49:15.026Z,7.78
2023-06-22T01:51:46.974Z,7.90
2023-06-22T01:54:18.888Z,8.32
2023-06-22T01:56:52.410Z,8.20
2023-06-22T01:59:30.021Z,9.48
2023-06-22T02:02:09.377Z,9.13
2023-06-22T02:05:00.988Z,8.40
2023-06-22T02:07:35.153Z,8.40
2023-06-22T02:10:08.315Z,7.57
2023-06-22T02:12:40.109Z,8.80
2023-06-22T02:15:13.801Z,7.60
2023-06-22T02:17:46.263Z,8.50
2023-06-22T02:20:18.827Z,8.63
2023-06-22T02:22:50.652Z,7.78
2023-06-22T02:25:22.779Z,7.95
2023-06-22T02:27:54.866Z,8.60
2023-06-22T02:30:27.122Z,8.43
2023-06-22T02:33:01.855Z,8.73
2023-06-22T02:35:36.702Z,7.15
2023-06-22T02:38:09.382Z,7.85
2023-06-22T02:40:41.321Z,7.53
2023-06-22T02:43:13.237Z,8.02
2023-06-22T02:45:45.226Z,8.05
2023-06-22T02:48:17.522Z,7.72
2023-06-22T02:50:50.233Z,6.88
2023-06-22T02:53:22.141Z,7.43
2023-06-22T02:55:54.267Z,7.43
2023-06-22T02:58:26.116Z,7.45
2023-06-22T03:00:58.050Z,7.07
2023-06-22T03:03:30.076Z,6.07
2023-06-22T03:06:02.285Z,6.80
2023-06-22T03:08:34.406Z,5.72
2023-06-22T03:11:06.396Z,5.97
2023-06-22T03:13:38.195Z,6.30
2023-06-22T03:16:11.763Z,6.03
2023-06-22T03:18:43.722Z,5.40
2023-06-22T03:21:16.631Z,5.72
2023-06-22T03:23:48.481Z,6.22
2023-06-22T03:26:20.792Z,5.72
2023-06-22T03:28:52.780Z,6.03
2023-06-22T03:31:24.709Z,6.13
2023-06-22T03:33:57.135Z,5.88
2023-06-22T03:36:29.724Z,5.57
2023-06-22T03:39:01.546Z,5.75
2023-06-22T03:41:33.881Z,5.82
2023-06-22T03:44:05.974Z,5.63
2023-06-22T03:46:38.206Z,5.50
2023-06-22T03:49:10.027Z,5.97
2023-06-22T03:51:41.986Z,6.05
2023-06-22T03:54:13.830Z,5.75
2023-06-22T03:56:45.942Z,5.53
2023-06-22T03:59:17.910Z,5.18
2023-06-22T04:01:49.767Z,5.10
2023-06-22T04:04:21.788Z,5.05
2023-06-22T04:06:53.772Z,5.25
2023-06-22T04:09:25.578Z,4.85
2023-06-22T04:11:57.346Z,5.15
2023-06-22T04:14:29.499Z,4.65
2023-06-22T04:17:01.537Z,4.50
2023-06-22T04:19:33.373Z,5.25
2023-06-22T04:25:41.110Z,4.38
2023-06-22T04:28:13.958Z,4.55
2023-06-22T04:30:48.592Z,4.97
2023-06-22T04:33:20.529Z,4.53
2023-06-22T04:35:52.280Z,4.28
2023-06-22T04:38:24.566Z,4.43
2023-06-22T04:40:56.398Z,4.90
2023-06-22T04:43:31.608Z,4.60
2023-06-22T04:46:04.891Z,4.28
2023-06-22T04:48:36.769Z,5.00
2023-06-22T04:51:09.590Z,4.20
2023-06-22T04:53:42.419Z,4.47
2023-06-22T04:56:16.953Z,4.85
2023-06-22T04:58:48.736Z,4.28
2023-06-22T05:01:20.608Z,4.88
2023-06-22T05:03:56.795Z,4.50
2023-06-22T05:06:28.858Z,5.15
2023-06-22T05:09:00.771Z,4.68
2023-06-22T05:11:32.582Z,4.57
2023-06-22T05:14:04.382Z,4.85
2023-06-22T05:16:36.590Z,4.50
2023-06-22T05:19:08.790Z,4.50
2023-06-22T05:21:40.668Z,4.88
2023-06-22T05:24:12.439Z,4.38
2023-06-22T05:26:44.354Z,5.07
2023-06-22T05:29:16.207Z,5.28
2023-06-22T05:31:48.219Z,5.32
2023-06-22T05:34:20.020Z,4.53
2023-06-22T05:36:51.840Z,4.70
2023-06-22T05:39:23.796Z,4.10
2023-06-22T05:41:55.568Z,4.45
2023-06-22T05:44:27.469Z,4.00
2023-06-22T05:46:59.443Z,4.65
2023-06-22T05:49:33.982Z,4.70
2023-06-22T05:52:06.455Z,4.63
2023-06-22T05:54:40.133Z,5.30
2023-06-22T05:57:12.055Z,4.70
2023-06-22T05:59:43.978Z,4.65
2023-06-22T06:02:15.903Z,4.72
2023-06-22T06:04:47.772Z,5.03
2023-06-22T06:07:19.986Z,4.55
2023-06-22T06:09:51.858Z,5.13
2023-06-22T06:12:23.619Z,4.95
2023-06-22T06:14:57.650Z,4.72
2023-06-22T06:17:32.582Z,4.93
2023-06-22T06:20:06.124Z,5.05
2023-06-22T06:22:38.000Z,4.60
2023-06-22T06:25:10.176Z,5.13
2023-06-22T06:27:41.983Z,5.07
2023-06-22T06:30:14.546Z,4.60
2023-06-22T06:32:47.078Z,4.85
2023-06-22T06:35:19.125Z,5.38
2023-06-22T06:37:51.327Z,5.28
2023-06-22T06:40:23.346Z,5.32
2023-06-22T06:42:55.095Z,5.20
2023-06-22T06:45:30.016Z,4.18
2023-06-22T06:48:01.875Z,4.07
2023-06-22T06:50:34.049Z,4.85
2023-06-22T06:53:07.152Z,4.55
2023-06-22T06:55:38.977Z,4.78
2023-06-22T06:58:13.179Z,5.07
2023-06-22T07:00:45.035Z,4.40
2023-06-22T07:03:16.940Z,3.83
2023-06-22T07:05:48.827Z,4.68
2023-06-22T07:08:20.653Z,3.50
2023-06-22T07:10:53.678Z,4.63
2023-06-22T07:13:25.446Z,4.55
2023-06-22T07:15:57.381Z,4.05
2023-06-22T07:18:29.400Z,3.92
2023-06-22T07:21:01.567Z,4.25
2023-06-22T07:23:33.722Z,4.28
2023-06-22T07:26:07.404Z,4.35
2023-06-22T07:28:41.795Z,4.05
2023-06-22T07:31:13.823Z,4.13
2023-06-22T07:33:45.688Z,4.32
2023-06-22T07:36:18.285Z,4.45
2023-06-22T07:38:50.140Z,4.15
2023-06-22T07:41:22.144Z,3.90
2023-06-22T07:43:53.980Z,3.65
2023-06-22T07:46:25.999Z,3.20
2023-06-22T07:48:58.371Z,3.72
2023-06-22T07:51:30.440Z,3.50
2023-06-22T07:54:02.281Z,3.72
2023-06-22T07:56:34.835Z,4.13
2023-06-22T07:59:07.592Z,4.15
2023-06-22T08:01:39.779Z,3.67
2023-06-22T08:04:11.835Z,3.58
2023-06-22T08:06:44.829Z,4.38
2023-06-22T08:09:16.730Z,3.58
2023-06-22T08:11:50.060Z,4.47
2023-06-22T08:14:21.873Z,3.45
2023-06-22T08:16:53.863Z,3.75
2023-06-22T08:19:25.831Z,3.30
2023-06-22T08:21:58.907Z,3.85
2023-06-22T08:24:31.783Z,3.63
2023-06-22T08:27:03.804Z,3.30
2023-06-22T08:29:35.556Z,4.55
2023-06-22T08:32:11.242Z,4.18
2023-06-22T08:34:43.524Z,3.63
2023-06-22T08:37:15.375Z,3.92
2023-06-22T08:39:47.965Z,3.88
2023-06-22T08:42:20.079Z,4.13
2023-06-22T08:44:52.015Z,3.53
2023-06-22T08:47:24.459Z,3.88
2023-06-22T08:49:57.110Z,4.53
2023-06-22T08:52:28.896Z,4.05
2023-06-22T08:55:00.945Z,3.67
2023-06-22T08:57:33.933Z,4.03
2023-06-22T09:00:17.182Z,4.30
2023-06-22T09:02:49.421Z,3.33
2023-06-22T09:05:23.241Z,3.55
2023-06-22T09:07:56.016Z,3.33
2023-06-22T09:10:28.177Z,3.83
2023-06-22T09:13:00.433Z,3.42
2023-06-22T09:15:32.710Z,3.47
2023-06-22T09:18:04.953Z,3.53
2023-06-22T09:20:36.811Z,2.90
2023-06-22T09:23:08.638Z,3.95
2023-06-22T09:25:41.793Z,3.05
2023-06-22T09:28:13.799Z,3.08
2023-06-22T09:30:45.925Z,3.45
2023-06-22T09:33:21.057Z,3.13
2023-06-22T09:35:53.252Z,4.05
2023-06-22T09:38:25.016Z,3.45
2023-06-22T09:40:56.831Z,4.00
2023-06-22T09:43:28.963Z,3.13
2023-06-22T09:46:01.173Z,3.33
2023-06-22T09:48:33.008Z,2.75
2023-06-22T09:51:05.313Z,3.42
2023-06-22T09:53:38.342Z,3.45
2023-06-22T09:56:16.162Z,3.33
2023-06-22T09:58:49.330Z,3.35
2023-06-22T10:01:22.654Z,3.65
2023-06-22T10:03:58.017Z,3.60
2023-06-22T10:06:30.357Z,3.30
2023-06-22T10:09:02.309Z,3.05
2023-06-22T10:11:36.207Z,2.85
2023-06-22T10:14:08.072Z,3.08
2023-06-22T10:16:42.244Z,2.95
2023-06-22T10:19:14.865Z,3.35
2023-06-22T10:21:46.857Z,3.17
2023-06-22T10:24:18.691Z,3.45
2023-06-22T10:26:50.653Z,3.10
2023-06-22T10:29:22.707Z,3.33
2023-06-22T10:31:55.403Z,2.97
2023-06-22T10:34:27.481Z,2.90
2023-06-22T10:36:59.378Z,3.30
2023-06-22T10:39:33.933Z,3.22
2023-06-22T10:42:06.126Z,3.03
2023-06-22T10:44:37.999Z,2.78
2023-06-22T10:47:10.037Z,3.28
2023-06-22T10:49:42.676Z,3.08
2023-06-22T10:52:14.653Z,3.53
2023-06-22T10:54:46.555Z,3.05
2023-06-22T10:57:18.603Z,3.38
2023-06-22T10:59:50.883Z,2.88
2023-06-22T11:02:23.071Z,3.10
2023-06-22T11:04:55.180Z,3.53
2023-06-22T11:07:28.809Z,3.20
2023-06-22T11:10:00.654Z,3.58
2023-06-22T11:12:32.600Z,2.92
2023-06-22T11:15:04.933Z,3.03
2023-06-22T11:17:37.135Z,2.47
2023-06-22T11:20:12.734Z,2.75
2023-06-22T11:22:44.817Z,3.10
2023-06-22T11:25:16.921Z,2.88
2023-06-22T11:27:48.770Z,3.65
2023-06-22T11:30:21.034Z,3.28
2023-06-22T11:32:52.923Z,2.72
2023-06-22T11:35:25.283Z,2.78
2023-06-22T11:37:57.426Z,3.20
2023-06-22T11:40:30.039Z,2.65
2023-06-22T11:43:02.361Z,3.05
2023-06-22T11:45:34.282Z,3.17
2023-06-22T11:48:06.474Z,2.95
2023-06-22T11:50:38.576Z,3.20
2023-06-22T11:53:10.529Z,2.33
2023-06-22T11:55:42.422Z,3.33
2023-06-22T11:58:15.353Z,3.20
2023-06-22T12:00:51.399Z,3.25
2023-06-22T12:03:24.523Z,3.42
2023-06-22T12:05:56.547Z,3.00
2023-06-22T12:08:28.573Z,3.30
2023-06-22T12:11:00.449Z,3.30
2023-06-22T12:13:32.853Z,2.90
2023-06-22T12:16:05.097Z,2.95
2023-06-22T12:18:37.045Z,3.22
2023-06-22T12:21:09.466Z,3.03
2023-06-22T12:23:41.865Z,2.72
2023-06-22T12:26:13.939Z,3.05
2023-06-22T12:28:45.827Z,3.03
2023-06-22T12:31:18.289Z,2.47
2023-06-22T12:33:50.195Z,3.00
2023-06-22T12:36:22.147Z,2.70
2023-06-22T12:38:54.456Z,2.90
2023-06-22T12:41:28.443Z,3.08
2023-06-22T12:44:00.309Z,3.00
2023-06-22T12:46:38.559Z,3.25
2023-06-22T12:49:10.373Z,2.90
2023-06-22T12:51:45.638Z,3.22
2023-06-22T12:54:17.725Z,2.55
2023-06-22T12:56:52.377Z,2.92
2023-06-22T12:59:25.464Z,2.45
2023-06-22T13:01:57.260Z,2.40
2023-06-22T13:04:29.886Z,3.15
2023-06-22T13:07:02.010Z,3.03
2023-06-22T13:09:36.696Z,3.08
2023-06-22T13:12:10.093Z,2.88
2023-06-22T13:14:42.023Z,2.78
2023-06-22T13:17:15.290Z,3.20
2023-06-22T13:19:47.235Z,2.45
2023-06-22T13:22:48.914Z,2.60
2023-06-22T13:25:23.229Z,2.78
2023-06-22T13:27:55.093Z,2.85
2023-06-22T13:30:27.122Z,2.90
2023-06-22T13:32:59.199Z,2.45
2023-06-22T13:35:31.484Z,3.30
2023-06-22T13:38:03.834Z,2.83
2023-06-22T13:40:35.843Z,2.75
2023-06-22T13:43:07.971Z,2.90
2023-06-22T13:45:39.844Z,2.90
2023-06-22T13:48:11.922Z,2.45
2023-06-22T13:50:44.536Z,2.58
2023-06-22T13:53:16.929Z,2.58
2023-06-22T13:55:48.938Z,2.83
2023-06-22T13:58:21.575Z,2.50
2023-06-22T14:00:55.757Z,2.70
2023-06-22T14:03:29.274Z,2.78
2023-06-22T14:06:01.393Z,2.60
2023-06-22T14:08:41.669Z,2.53
2023-06-22T14:11:14.928Z,2.50
2023-06-22T14:13:46.762Z,3.17
2023-06-22T14:16:18.651Z,2.65
2023-06-22T14:18:50.527Z,2.28
2023-06-22T14:21:22.334Z,3.17
2023-06-22T14:23:54.295Z,2.88
2023-06-22T14:26:26.471Z,3.35
2023-06-22T14:28:58.811Z,2.97
2023-06-22T14:31:30.818Z,2.95
2023-06-22T14:34:04.628Z,2.25
2023-06-22T14:36:36.527Z,3.13
2023-06-22T14:39:08.437Z,3.38
2023-06-22T14:41:40.470Z,2.28
2023-06-22T14:44:12.359Z,2.88
2023-06-22T14:46:44.179Z,2.67
2023-06-22T14:49:16.115Z,3.60
2023-06-22T14:51:47.874Z,2.30
2023-06-22T14:54:19.747Z,2.55
2023-06-22T14:56:51.908Z,2.72
2023-06-22T14:59:23.835Z,2.95
2023-06-22T15:01:55.802Z,2.92
2023-06-22T15:04:32.764Z,2.97
2023-06-22T15:07:04.983Z,2.65
2023-06-22T15:09:36.850Z,2.60
2023-06-22T15:12:12.517Z,2.58
2023-06-22T15:14:44.664Z,2.92
2023-06-22T15:17:16.500Z,2.70
2023-06-22T15:19:48.432Z,2.78
2023-06-22T15:22:20.886Z,2.50
2023-06-22T15:24:55.652Z,2.60
2023-06-22T15:27:28.207Z,3.05
2023-06-22T15:30:00.118Z,2.50
2023-06-22T15:32:31.978Z,3.00
2023-06-22T15:35:04.120Z,2.63
2023-06-22T15:37:35.938Z,2.50
2023-06-22T15:40:08.509Z,2.20
2023-06-22T15:42:40.417Z,2.20
2023-06-22T15:45:12.298Z,3.05
2023-06-22T15:47:44.166Z,2.85
2023-06-22T15:50:16.213Z,2.88
2023-06-22T15:52:51.145Z,2.30
2023-06-22T15:55:23.369Z,2.53
2023-06-22T15:57:55.482Z,2.40
2023-06-22T16:00:27.798Z,2.67
2023-06-22T16:03:00.122Z,2.72
2023-06-22T16:05:32.323Z,2.80
2023-06-22T16:08:04.395Z,2.85
2023-06-22T16:10:36.239Z,2.75
2023-06-22T16:13:08.128Z,2.60
2023-06-22T16:15:39.880Z,2.63
2023-06-22T16:18:12.158Z,2.45
2023-06-22T16:20:44.288Z,2.92
2023-06-22T16:23:16.248Z,2.40
2023-06-22T16:25:53.827Z,2.70
2023-06-22T16:28:25.798Z,2.97
2023-06-22T16:30:57.704Z,2.75
2023-06-22T16:33:29.559Z,2.53
2023-06-22T16:36:01.566Z,2.78
2023-06-22T16:38:34.766Z,2.67
2023-06-22T16:41:08.216Z,2.55
2023-06-22T16:43:40.395Z,2.50
2023-06-22T16:46:12.485Z,2.20
2023-06-22T16:48:51.363Z,2.40
2023-06-22T16:51:24.908Z,2.65
2023-06-22T16:53:59.387Z,2.30
2023-06-22T16:56:31.470Z,2.30
2023-06-22T16:59:07.632Z,2.60
2023-06-22T17:01:46.781Z,2.08
2023-06-22T17:04:20.939Z,2.97
2023-06-22T17:07:16.852Z,2.50
2023-06-22T17:09:49.303Z,2.13
2023-06-22T17:12:23.933Z,2.40
2023-06-22T17:14:56.058Z,2.55
2023-06-22T17:17:30.454Z,2.53
2023-06-22T17:20:03.885Z,2.75
2023-06-22T17:22:39.561Z,2.10
2023-06-22T17:25:11.851Z,2.65
2023-06-22T17:27:43.781Z,2.55
2023-06-22T17:30:18.784Z,2.45
2023-06-22T17:32:50.989Z,2.72
2023-06-22T17:35:23.203Z,2.50
2023-06-22T17:37:57.169Z,2.33
2023-06-22T17:40:29.797Z,2.78
2023-06-22T17:43:06.776Z,2.45
2023-06-22T17:45:43.313Z,2.33
2023-06-22T17:48:15.818Z,2.35
2023-06-22T17:50:47.763Z,3.15
2023-06-22T17:53:19.744Z,2.88
2023-06-22T17:55:56.869Z,2.92
2023-06-22T17:58:28.932Z,2.70
2023-06-22T18:01:00.888Z,2.47
2023-06-22T18:03:32.810Z,2.40
2023-06-22T18:06:04.916Z,3.28
2023-06-22T18:08:36.747Z,3.05
2023-06-22T18:11:08.571Z,2.83
2023-06-22T18:13:42.639Z,2.95
2023-06-22T18:16:14.794Z,3.00
2023-06-22T18:18:46.712Z,2.60
2023-06-22T18:21:18.652Z,3.00
2023-06-22T18:23:52.584Z,2.90
2023-06-22T18:26:26.904Z,3.08
2023-06-22T18:28:59.119Z,2.90
2023-06-22T18:31:31.684Z,3.28
2023-06-22T18:34:07.002Z,3.10
2023-06-22T18:36:52.834Z,2.90
2023-06-22T18:39:24.609Z,2.70
2023-06-22T18:41:58.737Z,2.67
2023-06-22T18:44:35.810Z,3.00
2023-06-22T18:47:08.489Z,2.60
2023-06-22T18:49:40.200Z,3.08
2023-06-22T18:52:12.424Z,3.10
2023-06-22T18:54:49.382Z,2.78
2023-06-22T18:57:34.176Z,2.65
2023-06-22T19:00:10.940Z,3.13
2023-06-22T19:03:01.327Z,3.30
2023-06-22T19:05:43.164Z,3.15
2023-06-22T19:08:15.081Z,2.90
2023-06-22T19:10:47.028Z,3.33
2023-06-22T19:13:28.599Z,2.75
2023-06-22T19:16:07.066Z,3.50
2023-06-22T19:18:40.983Z,3.85
2023-06-22T19:21:14.374Z,3.40
2023-06-22T19:23:46.366Z,3.15
2023-06-22T19:26:19.518Z,3.20
2023-06-22T19:28:55.832Z,2.88
2023-06-22T19:31:30.412Z,3.63
2023-06-22T19:34:06.393Z,3.50
2023-06-22T19:36:38.557Z,3.63
2023-06-22T19:39:12.009Z,4.03
2023-06-22T19:41:46.787Z,3.30
2023-06-22T19:44:18.587Z,3.22
2023-06-22T19:46:54.391Z,3.17
2023-06-22T19:49:26.735Z,3.10
2023-06-22T19:52:06.960Z,3.75
2023-06-22T19:54:41.858Z,3.70
2023-06-22T19:57:13.841Z,2.90
2023-06-22T19:59:47.266Z,4.10
2023-06-22T20:02:19.218Z,3.40
2023-06-22T20:04:51.063Z,3.40
2023-06-22T20:07:22.988Z,4.05
2023-06-22T20:10:09.650Z,3.70
2023-06-22T20:12:41.775Z,2.92
2023-06-22T20:15:26.801Z,4.15
2023-06-22T20:18:09.831Z,3.95
2023-06-22T20:20:46.140Z,3.30
2023-06-22T20:23:22.568Z,3.60
2023-06-22T20:25:54.981Z,3.58
2023-06-22T20:28:27.326Z,3.45
2023-06-22T20:31:03.734Z,3.47
2023-06-22T20:33:35.714Z,3.67
2023-06-22T20:36:07.764Z,3.13
2023-06-22T20:38:39.584Z,3.80
2023-06-22T20:41:11.431Z,4.53
2023-06-22T20:43:43.394Z,3.45
2023-06-22T20:46:15.403Z,3.95
2023-06-22T20:48:47.978Z,3.42
2023-06-22T20:51:19.845Z,3.40
2023-06-22T20:53:51.650Z,3.30
2023-06-22T20:56:24.969Z,3.80
2023-06-22T20:58:57.029Z,3.47
2023-06-22T21:01:34.178Z,3.60
2023-06-22T21:04:06.291Z,3.95
2023-06-22T21:06:38.489Z,3.30
2023-06-22T21:09:10.815Z,3.67
2023-06-22T21:11:42.976Z,3.55
2023-06-22T21:14:19.882Z,3.67
2023-06-22T21:16:52.775Z,3.65
2023-06-22T21:19:24.616Z,3.55
2023-06-22T21:21:56.568Z,3.58
2023-06-22T21:24:28.717Z,3.15
2023-06-22T21:27:00.913Z,3.63
2023-06-22T21:29:32.932Z,3.15
2023-06-22T21:32:05.234Z,3.67
2023-06-22T21:34:37.046Z,3.28
2023-06-22T21:37:08.916Z,3.67
2023-06-22T21:39:40.775Z,3.50
2023-06-22T21:42:13.296Z,3.58
2023-06-22T21:44:46.527Z,3.30
2023-06-22T21:47:18.646Z,3.60
2023-06-22T21:49:50.659Z,3.50
2023-06-22T21:52:22.604Z,3.47
2023-06-22T21:54:54.429Z,3.47
2023-06-22T21:57:27.946Z,3.50
2023-06-22T22:00:00.388Z,3.72
2023-06-22T22:02:32.311Z,3.90
2023-06-22T22:05:04.751Z,3.85
2023-06-22T22:07:36.708Z,4.13
2023-06-22T22:10:10.727Z,3.50
2023-06-22T22:12:42.656Z,3.40
2023-06-22T22:15:14.821Z,3.70
2023-06-22T22:17:47.153Z,4.15
2023-06-22T22:20:19.197Z,3.47
2023-06-22T22:22:51.557Z,4.10
2023-06-22T22:25:27.508Z,3.40
2023-06-22T22:27:59.401Z,3.65
2023-06-22T22:30:31.372Z,3.85
2023-06-22T22:33:03.296Z,3.53
2023-06-22T22:35:35.544Z,3.63
2023-06-22T22:38:07.484Z,4.47
2023-06-22T22:40:39.387Z,3.70
2023-06-22T22:43:11.299Z,4.60
2023-06-22T22:45:43.322Z,4.50
2023-06-22T22:48:15.178Z,4.20
2023-06-22T22:50:49.860Z,3.90
2023-06-22T22:53:21.751Z,3.95
2023-06-22T22:55:53.751Z,3.85
2023-06-22T22:58:26.166Z,4.03
2023-06-22T23:00:58.219Z,4.60
2023-06-22T23:03:31.185Z,3.80
2023-06-22T23:06:03.366Z,4.32
2023-06-22T23:08:35.667Z,4.25
2023-06-22T23:11:07.778Z,4.35
2023-06-22T23:13:39.712Z,4.20
2023-06-22T23:16:11.525Z,5.38
2023-06-22T23:18:45.451Z,4.60
2023-06-22T23:21:17.287Z,4.10
2023-06-22T23:23:49.058Z,4.43
2023-06-22T23:26:21.429Z,4.90
2023-06-22T23:28:53.196Z,5.05
2023-06-22T23:31:25.032Z,5.00
2023-06-22T23:33:56.810Z,4.95
2023-06-22T23:36:28.852Z,5.30
2023-06-22T23:39:00.757Z,5.53
2023-06-22T23:41:34.698Z,4.95
2023-06-22T23:44:06.524Z,4.78
2023-06-22T23:46:38.402Z,4.78
2023-06-22T23:49:10.245Z,5.00
2023-06-22T23:51:42.132Z,5.35
2023-06-22T23:54:17.440Z,4.65
2023-06-22T23:56:52.277Z,5.45
2023-06-22T23:59:26.882Z,5.07
